sensor_id;sensor_type;location;lat;lon;timestamp;pressure;altitude;pressure_sealevel;temperature;humidity
52735;BME280;38631;47.572;10.704;2023-05-21T00:01:03;92205.38;;;12.52;81.13
52735;BME280;38631;47.572;10.704;2023-05-21T00:03:30;92200.88;;;12.23;85.95
52735;BME280;38631;47.572;10.704;2023-05-21T00:05:55;92198.75;;;12.38;81.04
52735;BME280;38631;47.572;10.704;2023-05-21T00:08:22;92193.06;;;12.81;74.58
52735;BME280;38631;47.572;10.704;2023-05-21T00:10:47;92190.09;;;13.16;69.83
52735;BME280;38631;47.572;10.704;2023-05-21T00:13:13;92192.41;;;13.05;70.87
52735;BME280;38631;47.572;10.704;2023-05-21T00:15:38;92194.03;;;12.97;70.63
52735;BME280;38631;47.572;10.704;2023-05-21T00:18:04;92181.22;;;13.57;65.71
52735;BME280;38631;47.572;10.704;2023-05-21T00:20:29;92184.88;;;13.40;67.57
52735;BME280;38631;47.572;10.704;2023-05-21T00:22:57;92179.53;;;13.40;67.50
52735;BME280;38631;47.572;10.704;2023-05-21T00:25:22;92179.63;;;13.32;68.34
52735;BME280;38631;47.572;10.704;2023-05-21T00:27:48;92170.59;;;13.24;68.02
52735;BME280;38631;47.572;10.704;2023-05-21T00:30:13;92171.75;;;13.02;69.99
52735;BME280;38631;47.572;10.704;2023-05-21T00:32:39;92169.63;;;13.41;67.06
52735;BME280;38631;47.572;10.704;2023-05-21T00:35:05;92167.97;;;13.49;65.99
52735;BME280;38631;47.572;10.704;2023-05-21T00:37:30;92172.06;;;13.34;67.23
52735;BME280;38631;47.572;10.704;2023-05-21T00:39:58;92171.63;;;13.32;67.42
52735;BME280;38631;47.572;10.704;2023-05-21T00:42:24;92164.44;;;13.57;65.77
52735;BME280;38631;47.572;10.704;2023-05-21T00:44:52;92174.13;;;13.74;63.97
52735;BME280;38631;47.572;10.704;2023-05-21T00:47:18;92168.78;;;13.74;64.95
52735;BME280;38631;47.572;10.704;2023-05-21T00:49:46;92172.66;;;13.64;64.73
52735;BME280;38631;47.572;10.704;2023-05-21T00:52:12;92168.56;;;13.54;65.38
52735;BME280;38631;47.572;10.704;2023-05-21T00:54:39;92180.56;;;13.60;64.68
52735;BME280;38631;47.572;10.704;2023-05-21T00:57:05;92171.34;;;13.58;64.61
52735;BME280;38631;47.572;10.704;2023-05-21T00:59:31;92172.56;;;13.60;65.98
52735;BME280;38631;47.572;10.704;2023-05-21T01:01:57;92176.50;;;13.30;67.30
52735;BME280;38631;47.572;10.704;2023-05-21T01:04:29;92182.25;;;13.77;64.01
52735;BME280;38631;47.572;10.704;2023-05-21T01:06:55;92172.22;;;13.16;68.86
52735;BME280;38631;47.572;10.704;2023-05-21T01:09:25;92176.31;;;12.81;71.78
52735;BME280;38631;47.572;10.704;2023-05-21T01:11:51;92173.13;;;12.87;71.00
52735;BME280;38631;47.572;10.704;2023-05-21T01:14:18;92166.22;;;12.86;71.46
52735;BME280;38631;47.572;10.704;2023-05-21T01:16:46;92172.84;;;13.47;65.87
52735;BME280;38631;47.572;10.704;2023-05-21T01:19:15;92164.91;;;13.26;66.74
52735;BME280;38631;47.572;10.704;2023-05-21T01:21:45;92161.09;;;13.97;62.55
52735;BME280;38631;47.572;10.704;2023-05-21T01:24:11;92160.31;;;13.72;64.04
52735;BME280;38631;47.572;10.704;2023-05-21T01:26:36;92156.09;;;13.58;64.68
52735;BME280;38631;47.572;10.704;2023-05-21T01:29:06;92156.06;;;13.46;65.09
52735;BME280;38631;47.572;10.704;2023-05-21T01:31:44;92157.41;;;13.40;65.35
52735;BME280;38631;47.572;10.704;2023-05-21T01:34:12;92142.94;;;13.29;66.15
52735;BME280;38631;47.572;10.704;2023-05-21T01:36:48;92138.25;;;13.26;66.82
52735;BME280;38631;47.572;10.704;2023-05-21T01:39:18;92141.19;;;13.45;64.58
52735;BME280;38631;47.572;10.704;2023-05-21T01:41:46;92134.75;;;13.58;63.62
52735;BME280;38631;47.572;10.704;2023-05-21T01:44:12;92134.53;;;13.76;63.13
52735;BME280;38631;47.572;10.704;2023-05-21T01:46:40;92135.97;;;13.61;64.11
52735;BME280;38631;47.572;10.704;2023-05-21T01:49:06;92134.72;;;13.34;66.10
52735;BME280;38631;47.572;10.704;2023-05-21T01:51:33;92140.72;;;13.31;65.82
52735;BME280;38631;47.572;10.704;2023-05-21T01:53:58;92134.75;;;13.71;63.04
52735;BME280;38631;47.572;10.704;2023-05-21T01:56:24;92129.50;;;14.11;60.75
52735;BME280;38631;47.572;10.704;2023-05-21T01:58:50;92128.44;;;13.75;62.73
52735;BME280;38631;47.572;10.704;2023-05-21T02:01:15;92129.88;;;13.73;62.32
52735;BME280;38631;47.572;10.704;2023-05-21T02:03:41;92120.53;;;13.67;63.01
52735;BME280;38631;47.572;10.704;2023-05-21T02:06:06;92122.09;;;13.80;62.34
52735;BME280;38631;47.572;10.704;2023-05-21T02:08:32;92122.78;;;13.77;62.12
52735;BME280;38631;47.572;10.704;2023-05-21T02:10:57;92130.31;;;13.63;63.54
52735;BME280;38631;47.572;10.704;2023-05-21T02:13:23;92131.53;;;13.65;63.04
52735;BME280;38631;47.572;10.704;2023-05-21T02:15:49;92126.63;;;13.43;64.36
52735;BME280;38631;47.572;10.704;2023-05-21T02:18:15;92132.63;;;13.64;62.77
52735;BME280;38631;47.572;10.704;2023-05-21T02:20:42;92137.50;;;14.11;60.22
52735;BME280;38631;47.572;10.704;2023-05-21T02:23:08;92133.31;;;13.98;61.36
52735;BME280;38631;47.572;10.704;2023-05-21T02:25:33;92126.28;;;14.05;60.62
52735;BME280;38631;47.572;10.704;2023-05-21T02:27:59;92128.72;;;14.23;59.59
52735;BME280;38631;47.572;10.704;2023-05-21T02:30:25;92124.34;;;14.31;59.04
52735;BME280;38631;47.572;10.704;2023-05-21T02:32:50;92128.72;;;14.11;60.13
52735;BME280;38631;47.572;10.704;2023-05-21T02:35:16;92121.88;;;13.73;62.32
52735;BME280;38631;47.572;10.704;2023-05-21T02:37:41;92133.22;;;13.57;63.44
52735;BME280;38631;47.572;10.704;2023-05-21T02:40:08;92134.75;;;13.71;62.87
52735;BME280;38631;47.572;10.704;2023-05-21T02:42:34;92132.31;;;13.78;62.04
52735;BME280;38631;47.572;10.704;2023-05-21T02:45:00;92136.31;;;13.59;62.95
52735;BME280;38631;47.572;10.704;2023-05-21T02:47:26;92141.19;;;13.33;65.81
52735;BME280;38631;47.572;10.704;2023-05-21T02:49:52;92128.84;;;13.28;65.94
52735;BME280;38631;47.572;10.704;2023-05-21T02:52:18;92133.34;;;13.15;66.70
52735;BME280;38631;47.572;10.704;2023-05-21T02:54:45;92127.09;;;12.99;67.42
52735;BME280;38631;47.572;10.704;2023-05-21T02:57:11;92126.31;;;13.32;64.73
52735;BME280;38631;47.572;10.704;2023-05-21T02:59:36;92124.28;;;13.29;64.32
52735;BME280;38631;47.572;10.704;2023-05-21T03:02:01;92121.63;;;12.62;73.87
52735;BME280;38631;47.572;10.704;2023-05-21T03:04:27;92120.88;;;12.20;77.30
52735;BME280;38631;47.572;10.704;2023-05-21T03:06:53;92118.16;;;12.07;78.96
52735;BME280;38631;47.572;10.704;2023-05-21T03:09:22;92122.81;;;12.10;79.66
52735;BME280;38631;47.572;10.704;2023-05-21T03:11:50;92122.69;;;12.07;78.51
52735;BME280;38631;47.572;10.704;2023-05-21T03:14:16;92116.34;;;11.99;78.60
52735;BME280;38631;47.572;10.704;2023-05-21T03:16:42;92114.84;;;12.31;75.04
52735;BME280;38631;47.572;10.704;2023-05-21T03:19:08;92107.28;;;12.54;71.34
52735;BME280;38631;47.572;10.704;2023-05-21T03:21:33;92104.00;;;13.03;66.64
52735;BME280;38631;47.572;10.704;2023-05-21T03:23:59;92100.88;;;13.01;68.13
52735;BME280;38631;47.572;10.704;2023-05-21T03:26:25;92110.63;;;13.30;65.12
52735;BME280;38631;47.572;10.704;2023-05-21T03:28:52;92106.47;;;13.21;65.52
52735;BME280;38631;47.572;10.704;2023-05-21T03:31:17;92100.28;;;13.41;64.01
52735;BME280;38631;47.572;10.704;2023-05-21T03:33:43;92112.84;;;13.40;64.55
52735;BME280;38631;47.572;10.704;2023-05-21T03:36:08;92110.56;;;13.18;67.76
52735;BME280;38631;47.572;10.704;2023-05-21T03:38:33;92104.75;;;12.58;72.92
52735;BME280;38631;47.572;10.704;2023-05-21T03:40:59;92101.00;;;12.71;70.40
52735;BME280;38631;47.572;10.704;2023-05-21T03:43:24;92100.00;;;12.97;67.61
52735;BME280;38631;47.572;10.704;2023-05-21T03:45:53;92099.91;;;12.72;71.02
52735;BME280;38631;47.572;10.704;2023-05-21T03:48:18;92099.38;;;12.79;68.16
52735;BME280;38631;47.572;10.704;2023-05-21T03:50:44;92104.00;;;13.03;66.62
52735;BME280;38631;47.572;10.704;2023-05-21T03:53:09;92097.38;;;13.34;64.96
52735;BME280;38631;47.572;10.704;2023-05-21T03:55:35;92097.19;;;13.27;63.69
52735;BME280;38631;47.572;10.704;2023-05-21T03:58:00;92103.41;;;12.85;71.33
52735;BME280;38631;47.572;10.704;2023-05-21T04:00:26;92109.47;;;12.19;75.22
52735;BME280;38631;47.572;10.704;2023-05-21T04:02:51;92100.69;;;12.73;68.51
52735;BME280;38631;47.572;10.704;2023-05-21T04:05:17;92111.38;;;12.85;68.01
52735;BME280;38631;47.572;10.704;2023-05-21T04:07:43;92102.84;;;13.37;63.54
52735;BME280;38631;47.572;10.704;2023-05-21T04:10:10;92103.88;;;13.70;61.85
52735;BME280;38631;47.572;10.704;2023-05-21T04:12:36;92109.19;;;13.57;62.62
52735;BME280;38631;47.572;10.704;2023-05-21T04:15:02;92108.53;;;13.48;63.70
52735;BME280;38631;47.572;10.704;2023-05-21T04:17:27;92109.84;;;13.67;62.56
52735;BME280;38631;47.572;10.704;2023-05-21T04:19:53;92115.72;;;13.97;60.68
52735;BME280;38631;47.572;10.704;2023-05-21T04:22:18;92112.84;;;13.90;61.14
52735;BME280;38631;47.572;10.704;2023-05-21T04:24:44;92124.31;;;13.78;62.06
52735;BME280;38631;47.572;10.704;2023-05-21T04:27:10;92124.22;;;13.74;61.71
52735;BME280;38631;47.572;10.704;2023-05-21T04:29:38;92121.97;;;13.64;63.43
52735;BME280;38631;47.572;10.704;2023-05-21T04:32:07;92127.19;;;13.60;63.20
52735;BME280;38631;47.572;10.704;2023-05-21T04:34:32;92125.22;;;13.70;63.01
52735;BME280;38631;47.572;10.704;2023-05-21T04:36:58;92127.75;;;13.54;63.92
52735;BME280;38631;47.572;10.704;2023-05-21T04:39:23;92125.63;;;13.84;61.67
52735;BME280;38631;47.572;10.704;2023-05-21T04:41:49;92134.84;;;14.11;59.92
52735;BME280;38631;47.572;10.704;2023-05-21T04:44:14;92133.84;;;14.03;60.97
52735;BME280;38631;47.572;10.704;2023-05-21T04:46:41;92133.84;;;14.03;60.98
52735;BME280;38631;47.572;10.704;2023-05-21T04:49:10;92140.63;;;14.01;61.45
52735;BME280;38631;47.572;10.704;2023-05-21T04:51:36;92136.97;;;14.05;61.38
52735;BME280;38631;47.572;10.704;2023-05-21T04:54:02;92135.53;;;13.96;62.10
52735;BME280;38631;47.572;10.704;2023-05-21T04:56:27;92138.84;;;14.17;60.45
52735;BME280;38631;47.572;10.704;2023-05-21T04:58:53;92133.75;;;14.00;62.20
52735;BME280;38631;47.572;10.704;2023-05-21T05:01:19;92131.78;;;13.85;63.22
52735;BME280;38631;47.572;10.704;2023-05-21T05:03:49;92128.06;;;13.89;62.29
52735;BME280;38631;47.572;10.704;2023-05-21T05:06:15;92135.44;;;14.04;61.41
52735;BME280;38631;47.572;10.704;2023-05-21T05:08:41;92131.31;;;14.07;62.20
52735;BME280;38631;47.572;10.704;2023-05-21T05:11:06;92134.34;;;14.34;59.75
52735;BME280;38631;47.572;10.704;2023-05-21T05:13:33;92137.31;;;14.44;59.82
52735;BME280;38631;47.572;10.704;2023-05-21T05:15:58;92132.94;;;14.64;58.55
52735;BME280;38631;47.572;10.704;2023-05-21T05:18:24;92134.47;;;14.78;57.96
52735;BME280;38631;47.572;10.704;2023-05-21T05:20:50;92130.03;;;14.69;60.25
52735;BME280;38631;47.572;10.704;2023-05-21T05:23:15;92124.81;;;14.73;61.20
52735;BME280;38631;47.572;10.704;2023-05-21T05:25:41;92126.75;;;14.88;58.83
52735;BME280;38631;47.572;10.704;2023-05-21T05:28:06;92123.75;;;15.06;58.29
52735;BME280;38631;47.572;10.704;2023-05-21T05:30:31;92124.72;;;15.13;57.10
52735;BME280;38631;47.572;10.704;2023-05-21T05:32:57;92130.59;;;15.19;57.17
52735;BME280;38631;47.572;10.704;2023-05-21T05:35:22;92137.25;;;15.41;55.75
52735;BME280;38631;47.572;10.704;2023-05-21T05:37:48;92138.47;;;15.44;56.04
52735;BME280;38631;47.572;10.704;2023-05-21T05:40:13;92131.47;;;15.39;57.32
52735;BME280;38631;47.572;10.704;2023-05-21T05:42:38;92126.63;;;15.45;56.69
52735;BME280;38631;47.572;10.704;2023-05-21T05:45:04;92128.81;;;15.55;57.12
52735;BME280;38631;47.572;10.704;2023-05-21T05:47:30;92135.03;;;15.59;57.08
52735;BME280;38631;47.572;10.704;2023-05-21T05:49:55;92125.72;;;15.53;56.82
52735;BME280;38631;47.572;10.704;2023-05-21T05:52:21;92133.38;;;15.39;58.74
52735;BME280;38631;47.572;10.704;2023-05-21T05:54:46;92129.41;;;15.32;57.70
52735;BME280;38631;47.572;10.704;2023-05-21T05:57:11;92133.63;;;15.33;57.69
52735;BME280;38631;47.572;10.704;2023-05-21T05:59:37;92121.03;;;15.34;56.71
52735;BME280;38631;47.572;10.704;2023-05-21T06:02:02;92128.47;;;15.41;56.25
52735;BME280;38631;47.572;10.704;2023-05-21T06:04:28;92129.69;;;15.27;56.39
52735;BME280;38631;47.572;10.704;2023-05-21T06:06:54;92130.78;;;15.42;55.61
52735;BME280;38631;47.572;10.704;2023-05-21T06:09:22;92119.75;;;15.28;57.23
52735;BME280;38631;47.572;10.704;2023-05-21T06:11:47;92131.13;;;15.25;56.52
52735;BME280;38631;47.572;10.704;2023-05-21T06:14:13;92137.53;;;15.36;55.75
52735;BME280;38631;47.572;10.704;2023-05-21T06:16:38;92128.28;;;15.33;56.60
52735;BME280;38631;47.572;10.704;2023-05-21T06:19:03;92131.47;;;15.39;55.92
52735;BME280;38631;47.572;10.704;2023-05-21T06:21:29;92125.34;;;15.23;57.65
52735;BME280;38631;47.572;10.704;2023-05-21T06:23:54;92133.56;;;15.30;56.34
52735;BME280;38631;47.572;10.704;2023-05-21T06:26:20;92137.25;;;15.41;55.96
52735;BME280;38631;47.572;10.704;2023-05-21T06:28:46;92125.34;;;15.39;55.85
52735;BME280;38631;47.572;10.704;2023-05-21T06:31:11;92128.28;;;15.49;54.77
52735;BME280;38631;47.572;10.704;2023-05-21T06:33:37;92121.13;;;15.38;56.20
52735;BME280;38631;47.572;10.704;2023-05-21T06:36:03;92134.66;;;15.29;57.07
52735;BME280;38631;47.572;10.704;2023-05-21T06:38:28;92129.81;;;15.34;57.66
52735;BME280;38631;47.572;10.704;2023-05-21T06:40:53;92135.03;;;15.43;56.26
52735;BME280;38631;47.572;10.704;2023-05-21T06:43:19;92144.78;;;15.36;56.73
52735;BME280;38631;47.572;10.704;2023-05-21T06:45:44;92149.09;;;15.56;55.82
52735;BME280;38631;47.572;10.704;2023-05-21T06:48:10;92152.22;;;15.58;56.89
52735;BME280;38631;47.572;10.704;2023-05-21T06:50:36;92151.44;;;15.58;57.22
52735;BME280;38631;47.572;10.704;2023-05-21T06:53:02;92149.22;;;15.75;55.88
52735;BME280;38631;47.572;10.704;2023-05-21T06:55:27;92148.59;;;15.66;56.62
52735;BME280;38631;47.572;10.704;2023-05-21T06:57:52;92148.16;;;15.64;58.24
52735;BME280;38631;47.572;10.704;2023-05-21T07:00:18;92152.69;;;15.76;56.68
52735;BME280;38631;47.572;10.704;2023-05-21T07:02:43;92150.78;;;15.76;57.94
52735;BME280;38631;47.572;10.704;2023-05-21T07:05:09;92152.16;;;15.70;58.66
52735;BME280;38631;47.572;10.704;2023-05-21T07:07:34;92162.56;;;15.60;59.18
52735;BME280;38631;47.572;10.704;2023-05-21T07:09:59;92169.22;;;15.66;59.70
52735;BME280;38631;47.572;10.704;2023-05-21T07:12:25;92165.66;;;15.02;67.37
52735;BME280;38631;47.572;10.704;2023-05-21T07:14:50;92179.09;;;14.89;68.49
52735;BME280;38631;47.572;10.704;2023-05-21T07:17:15;92178.47;;;14.80;70.16
52735;BME280;38631;47.572;10.704;2023-05-21T07:19:41;92171.53;;;14.79;72.25
52735;BME280;38631;47.572;10.704;2023-05-21T07:22:06;92168.47;;;14.77;72.04
52735;BME280;38631;47.572;10.704;2023-05-21T07:24:31;92173.25;;;14.72;71.31
52735;BME280;38631;47.572;10.704;2023-05-21T07:26:57;92172.78;;;14.69;72.71
52735;BME280;38631;47.572;10.704;2023-05-21T07:29:22;92171.16;;;14.53;73.00
52735;BME280;38631;47.572;10.704;2023-05-21T07:31:48;92164.28;;;14.39;73.77
52735;BME280;38631;47.572;10.704;2023-05-21T07:34:13;92172.84;;;14.57;73.54
52735;BME280;38631;47.572;10.704;2023-05-21T07:36:38;92168.28;;;14.58;73.43
52735;BME280;38631;47.572;10.704;2023-05-21T07:39:04;92169.16;;;14.62;72.87
52735;BME280;38631;47.572;10.704;2023-05-21T07:41:29;92166.56;;;14.78;72.38
52735;BME280;38631;47.572;10.704;2023-05-21T07:43:55;92163.94;;;14.94;71.33
52735;BME280;38631;47.572;10.704;2023-05-21T07:46:20;92168.69;;;15.00;71.64
52735;BME280;38631;47.572;10.704;2023-05-21T07:48:45;92173.31;;;14.87;70.30
52735;BME280;38631;47.572;10.704;2023-05-21T07:51:12;92174.63;;;14.94;73.31
52735;BME280;38631;47.572;10.704;2023-05-21T07:53:38;92171.63;;;14.95;69.78
52735;BME280;38631;47.572;10.704;2023-05-21T07:56:03;92179.63;;;14.95;71.27
52735;BME280;38631;47.572;10.704;2023-05-21T07:58:29;92183.38;;;15.06;73.19
52735;BME280;38631;47.572;10.704;2023-05-21T08:00:55;92185.91;;;15.15;74.55
52735;BME280;38631;47.572;10.704;2023-05-21T08:03:21;92185.22;;;15.18;75.33
52735;BME280;38631;47.572;10.704;2023-05-21T08:05:47;92191.63;;;15.01;73.27
52735;BME280;38631;47.572;10.704;2023-05-21T08:08:22;92190.09;;;15.00;74.00
52735;BME280;38631;47.572;10.704;2023-05-21T08:10:47;92191.50;;;15.10;74.86
52735;BME280;38631;47.572;10.704;2023-05-21T08:13:16;92195.22;;;15.21;75.81
52735;BME280;38631;47.572;10.704;2023-05-21T08:15:41;92194.97;;;15.26;74.13
52735;BME280;38631;47.572;10.704;2023-05-21T08:18:07;92189.53;;;15.23;74.90
52735;BME280;38631;47.572;10.704;2023-05-21T08:20:32;92193.00;;;15.39;76.21
52735;BME280;38631;47.572;10.704;2023-05-21T08:22:58;92195.59;;;15.36;77.66
52735;BME280;38631;47.572;10.704;2023-05-21T08:25:27;92191.22;;;15.43;77.74
52735;BME280;38631;47.572;10.704;2023-05-21T08:27:52;92193.47;;;15.41;75.88
52735;BME280;38631;47.572;10.704;2023-05-21T08:30:18;92194.91;;;15.39;74.76
52735;BME280;38631;47.572;10.704;2023-05-21T08:32:43;92198.41;;;15.55;75.14
52735;BME280;38631;47.572;10.704;2023-05-21T08:35:09;92191.66;;;15.61;74.86
52735;BME280;38631;47.572;10.704;2023-05-21T08:37:34;92200.09;;;15.91;73.36
52735;BME280;38631;47.572;10.704;2023-05-21T08:39:59;92195.34;;;16.01;71.65
52735;BME280;38631;47.572;10.704;2023-05-21T08:42:46;92190.94;;;16.08;71.26
52735;BME280;38631;47.572;10.704;2023-05-21T08:45:12;92192.00;;;16.39;72.74
52735;BME280;38631;47.572;10.704;2023-05-21T08:47:41;92191.00;;;16.63;73.15
52735;BME280;38631;47.572;10.704;2023-05-21T08:50:09;92197.13;;;16.63;72.19
52735;BME280;38631;47.572;10.704;2023-05-21T08:52:35;92192.53;;;16.64;72.98
52735;BME280;38631;47.572;10.704;2023-05-21T08:55:02;92190.75;;;16.52;69.96
52735;BME280;38631;47.572;10.704;2023-05-21T08:57:29;92199.06;;;16.47;71.92
52735;BME280;38631;47.572;10.704;2023-05-21T08:59:56;92205.41;;;16.39;68.65
52735;BME280;38631;47.572;10.704;2023-05-21T09:02:21;92196.84;;;16.33;67.61
52735;BME280;38631;47.572;10.704;2023-05-21T09:04:50;92202.13;;;16.30;65.41
52735;BME280;38631;47.572;10.704;2023-05-21T09:07:24;92203.59;;;16.43;66.39
52735;BME280;38631;47.572;10.704;2023-05-21T09:10:03;92202.78;;;16.42;64.38
52735;BME280;38631;47.572;10.704;2023-05-21T09:12:32;92197.03;;;16.40;65.01
52735;BME280;38631;47.572;10.704;2023-05-21T09:14:59;92207.53;;;16.49;65.96
52735;BME280;38631;47.572;10.704;2023-05-21T09:17:24;92205.78;;;16.57;65.15
52735;BME280;38631;47.572;10.704;2023-05-21T09:20:06;92207.06;;;16.79;65.99
52735;BME280;38631;47.572;10.704;2023-05-21T09:22:49;92213.81;;;16.73;64.51
52735;BME280;38631;47.572;10.704;2023-05-21T09:25:17;92211.03;;;16.69;64.45
52735;BME280;38631;47.572;10.704;2023-05-21T09:27:43;92209.91;;;16.86;64.95
52735;BME280;38631;47.572;10.704;2023-05-21T09:30:13;92208.47;;;16.92;64.18
52735;BME280;38631;47.572;10.704;2023-05-21T09:32:39;92215.69;;;17.27;65.15
52735;BME280;38631;47.572;10.704;2023-05-21T09:35:09;92213.72;;;17.24;65.68
52735;BME280;38631;47.572;10.704;2023-05-21T09:37:42;92209.84;;;17.21;65.91
52735;BME280;38631;47.572;10.704;2023-05-21T09:40:15;92212.50;;;17.02;62.32
52735;BME280;38631;47.572;10.704;2023-05-21T09:42:46;92213.72;;;17.04;65.39
52735;BME280;38631;47.572;10.704;2023-05-21T09:45:11;92208.22;;;17.17;62.85
52735;BME280;38631;47.572;10.704;2023-05-21T09:47:41;92207.06;;;17.18;63.21
52735;BME280;38631;47.572;10.704;2023-05-21T09:50:11;92207.34;;;17.13;61.75
52735;BME280;38631;47.572;10.704;2023-05-21T09:52:37;92196.00;;;17.19;62.34
52735;BME280;38631;47.572;10.704;2023-05-21T09:55:04;92207.50;;;17.20;62.48
52735;BME280;38631;47.572;10.704;2023-05-21T09:57:30;92200.06;;;17.33;61.59
52735;BME280;38631;47.572;10.704;2023-05-21T09:59:55;92198.72;;;17.42;61.33
52735;BME280;38631;47.572;10.704;2023-05-21T10:02:22;92201.53;;;17.49;60.90
52735;BME280;38631;47.572;10.704;2023-05-21T10:04:49;92192.56;;;17.42;60.82
52735;BME280;38631;47.572;10.704;2023-05-21T10:07:19;92194.63;;;17.48;61.92
52735;BME280;38631;47.572;10.704;2023-05-21T10:09:54;92197.03;;;17.54;60.44
52735;BME280;38631;47.572;10.704;2023-05-21T10:12:22;92187.09;;;17.58;62.00
52735;BME280;38631;47.572;10.704;2023-05-21T10:14:50;92193.78;;;17.67;61.14
52735;BME280;38631;47.572;10.704;2023-05-21T10:17:18;92199.50;;;17.43;60.09
52735;BME280;38631;47.572;10.704;2023-05-21T10:19:45;92192.06;;;17.56;59.38
52735;BME280;38631;47.572;10.704;2023-05-21T10:22:12;92193.75;;;17.64;59.59
52735;BME280;38631;47.572;10.704;2023-05-21T10:24:39;92199.56;;;17.89;61.34
52735;BME280;38631;47.572;10.704;2023-05-21T10:27:05;92197.53;;;17.82;60.92
52735;BME280;38631;47.572;10.704;2023-05-21T10:29:32;92194.94;;;17.86;61.06
52735;BME280;38631;47.572;10.704;2023-05-21T10:32:01;92204.34;;;17.99;62.55
52735;BME280;38631;47.572;10.704;2023-05-21T10:34:28;92190.75;;;17.88;63.34
52735;BME280;38631;47.572;10.704;2023-05-21T10:36:55;92194.03;;;18.01;60.73
52735;BME280;38631;47.572;10.704;2023-05-21T10:39:22;92195.97;;;18.04;61.10
52735;BME280;38631;47.572;10.704;2023-05-21T10:42:46;92203.78;;;18.13;61.96
52735;BME280;38631;47.572;10.704;2023-05-21T10:45:15;92198.66;;;18.27;60.95
52735;BME280;38631;47.572;10.704;2023-05-21T10:50:43;92190.44;;;18.17;60.92
52735;BME280;38631;47.572;10.704;2023-05-21T10:56:22;92193.03;;;18.36;62.54
52735;BME280;38631;47.572;10.704;2023-05-21T11:01:32;92178.63;;;18.78;64.46
52735;BME280;38631;47.572;10.704;2023-05-21T11:03:59;92177.91;;;19.11;62.54
52735;BME280;38631;47.572;10.704;2023-05-21T11:06:25;92179.44;;;19.09;62.54
52735;BME280;38631;47.572;10.704;2023-05-21T11:08:51;92182.75;;;19.29;62.32
52735;BME280;38631;47.572;10.704;2023-05-21T11:11:52;92174.34;;;19.34;63.26
52735;BME280;38631;47.572;10.704;2023-05-21T11:14:31;92176.63;;;19.35;61.74
52735;BME280;38631;47.572;10.704;2023-05-21T11:17:41;92181.81;;;19.17;60.65
52735;BME280;38631;47.572;10.704;2023-05-21T11:19:48;92179.78;;;19.07;61.23
52735;BME280;38631;47.572;10.704;2023-05-21T11:22:23;92184.28;;;19.30;61.99
52735;BME280;38631;47.572;10.704;2023-05-21T11:24:50;92187.78;;;19.34;60.38
52735;BME280;38631;47.572;10.704;2023-05-21T11:27:38;92186.94;;;19.26;60.51
52735;BME280;38631;47.572;10.704;2023-05-21T11:30:07;92182.97;;;19.16;59.48
52735;BME280;38631;47.572;10.704;2023-05-21T11:35:55;92177.44;;;19.06;60.12
52735;BME280;38631;47.572;10.704;2023-05-21T11:38:21;92182.44;;;19.04;60.72
52735;BME280;38631;47.572;10.704;2023-05-21T11:40:51;92188.63;;;19.08;60.62
52735;BME280;38631;47.572;10.704;2023-05-21T11:43:18;92187.88;;;19.11;61.41
52735;BME280;38631;47.572;10.704;2023-05-21T11:45:44;92179.38;;;19.05;62.29
52735;BME280;38631;47.572;10.704;2023-05-21T11:48:12;92189.06;;;19.13;61.11
52735;BME280;38631;47.572;10.704;2023-05-21T11:50:38;92188.50;;;19.31;60.69
52735;BME280;38631;47.572;10.704;2023-05-21T11:53:06;92189.91;;;19.17;61.03
52735;BME280;38631;47.572;10.704;2023-05-21T11:55:37;92189.03;;;19.10;58.60
52735;BME280;38631;47.572;10.704;2023-05-21T11:58:04;92185.16;;;19.07;59.79
52735;BME280;38631;47.572;10.704;2023-05-21T12:00:37;92187.88;;;19.11;60.34
52735;BME280;38631;47.572;10.704;2023-05-21T12:03:04;92192.25;;;19.23;59.11
52735;BME280;38631;47.572;10.704;2023-05-21T12:05:45;92183.34;;;19.15;59.54
52735;BME280;38631;47.572;10.704;2023-05-21T12:08:11;92184.97;;;19.23;60.60
52735;BME280;38631;47.572;10.704;2023-05-21T12:10:36;92186.84;;;19.19;60.56
52735;BME280;38631;47.572;10.704;2023-05-21T12:13:03;92182.69;;;19.25;61.20
52735;BME280;38631;47.572;10.704;2023-05-21T12:15:30;92192.31;;;19.26;61.83
52735;BME280;38631;47.572;10.704;2023-05-21T12:17:56;92191.59;;;19.33;62.20
52735;BME280;38631;47.572;10.704;2023-05-21T12:20:21;92184.63;;;19.28;61.96
52735;BME280;38631;47.572;10.704;2023-05-21T12:22:48;92182.34;;;19.30;62.49
52735;BME280;38631;47.572;10.704;2023-05-21T12:25:16;92187.66;;;19.23;62.00
52735;BME280;38631;47.572;10.704;2023-05-21T12:27:52;92186.88;;;19.23;60.99
52735;BME280;38631;47.572;10.704;2023-05-21T12:30:24;92184.09;;;19.15;61.02
52735;BME280;38631;47.572;10.704;2023-05-21T12:32:50;92190.97;;;19.09;61.95
52735;BME280;38631;47.572;10.704;2023-05-21T12:35:22;92181.28;;;19.05;61.84
52735;BME280;38631;47.572;10.704;2023-05-21T12:37:49;92187.50;;;19.09;62.03
52735;BME280;38631;47.572;10.704;2023-05-21T12:40:18;92191.69;;;19.06;62.66
52735;BME280;38631;47.572;10.704;2023-05-21T12:42:45;92189.38;;;19.05;61.49
52735;BME280;38631;47.572;10.704;2023-05-21T12:45:11;92185.84;;;19.00;61.78
52735;BME280;38631;47.572;10.704;2023-05-21T12:47:37;92190.47;;;19.00;63.66
52735;BME280;38631;47.572;10.704;2023-05-21T12:50:07;92191.22;;;19.00;62.14
52735;BME280;38631;47.572;10.704;2023-05-21T12:52:35;92193.75;;;19.16;61.91
52735;BME280;38631;47.572;10.704;2023-05-21T12:55:01;92191.91;;;19.24;61.40
52735;BME280;38631;47.572;10.704;2023-05-21T12:57:34;92196.13;;;19.21;62.19
52735;BME280;38631;47.572;10.704;2023-05-21T13:00:04;92193.69;;;19.13;63.78
52735;BME280;38631;47.572;10.704;2023-05-21T13:02:41;92196.88;;;19.22;61.95